createdAt,value
2022-11-03T00:00:10.032Z,6.98
2022-11-03T00:03:00.791Z,6.96
2022-11-03T00:05:53.160Z,6.97
2022-11-03T00:08:24.839Z,6.96
2022-11-03T00:11:04.047Z,6.96
2022-11-03T00:13:35.934Z,6.96
2022-11-03T00:16:09.062Z,6.91
2022-11-03T00:18:40.786Z,6.88
2022-11-03T00:21:16.131Z,6.86
2022-11-03T00:23:48.035Z,6.85
2022-11-03T00:26:24.774Z,6.82
2022-11-03T00:28:58.062Z,6.81
2022-11-03T00:31:33.785Z,6.81
2022-11-03T00:34:09.139Z,6.81
2022-11-03T00:36:42.355Z,6.78
2022-11-03T00:39:14.599Z,6.76
2022-11-03T00:41:47.032Z,6.75
2022-11-03T00:44:18.661Z,6.72
2022-11-03T00:46:50.635Z,6.57
2022-11-03T00:49:22.335Z,6.48
2022-11-03T00:51:55.718Z,6.40
2022-11-03T00:54:27.316Z,6.33
2022-11-03T00:56:59.820Z,6.32
2022-11-03T00:59:31.433Z,6.31
2022-11-03T01:02:04.819Z,6.21
2022-11-03T01:04:54.083Z,6.11
2022-11-03T01:07:25.742Z,5.95
2022-11-03T01:09:57.355Z,5.91
2022-11-03T01:12:30.607Z,5.97
2022-11-03T01:15:02.297Z,6.01
2022-11-03T01:17:33.976Z,5.99
2022-11-03T01:20:12.367Z,6.00
2022-11-03T01:22:51.754Z,6.01
2022-11-03T01:25:24.325Z,6.00
2022-11-03T01:27:56.119Z,5.99
2022-11-03T01:30:27.837Z,5.95
2022-11-03T01:33:01.175Z,5.87
2022-11-03T01:35:33.243Z,5.81
2022-11-03T01:38:04.876Z,5.86
2022-11-03T01:40:36.238Z,5.86
2022-11-03T01:43:24.688Z,5.83
2022-11-03T01:46:03.643Z,5.88
2022-11-03T01:48:42.507Z,5.94
2022-11-03T01:51:17.880Z,5.97
2022-11-03T01:53:56.342Z,6.01
2022-11-03T01:56:30.975Z,6.04
2022-11-03T01:59:03.552Z,6.05
2022-11-03T02:01:35.758Z,6.07
2022-11-03T02:04:13.147Z,6.10
2022-11-03T02:06:45.094Z,6.13
2022-11-03T02:09:16.865Z,6.15
2022-11-03T02:12:06.289Z,6.14
2022-11-03T02:14:45.656Z,5.98
2022-11-03T02:17:19.121Z,5.76
2022-11-03T02:19:56.545Z,5.68
2022-11-03T02:22:45.027Z,5.71
2022-11-03T02:25:22.572Z,5.66
2022-11-03T02:27:54.167Z,5.66
2022-11-03T02:30:30.557Z,5.70
2022-11-03T02:33:12.385Z,5.76
2022-11-03T02:35:51.479Z,5.81
2022-11-03T02:38:26.822Z,5.85
2022-11-03T02:41:05.309Z,5.88
2022-11-03T02:43:37.040Z,5.90
2022-11-03T02:46:10.267Z,5.91
2022-11-03T02:48:41.951Z,5.93
2022-11-03T02:51:16.796Z,5.94
2022-11-03T02:53:57.663Z,5.95
2022-11-03T02:56:32.305Z,5.96
2022-11-03T02:59:07.975Z,5.94
2022-11-03T03:01:50.440Z,5.89
2022-11-03T03:04:28.129Z,5.83
2022-11-03T03:07:06.778Z,5.77
2022-11-03T03:09:47.652Z,5.58
2022-11-03T03:12:24.931Z,5.38
2022-11-03T03:14:58.684Z,5.20
2022-11-03T03:17:36.926Z,5.08
2022-11-03T03:20:16.347Z,4.95
2022-11-03T03:22:54.857Z,4.86
2022-11-03T03:25:30.618Z,4.86
2022-11-03T03:28:07.724Z,4.92
2022-11-03T03:30:40.431Z,4.94
2022-11-03T03:33:14.452Z,4.79
2022-11-03T03:35:50.139Z,4.64
2022-11-03T03:38:27.103Z,4.51
2022-11-03T03:41:00.984Z,4.45
2022-11-03T03:43:47.369Z,4.48
2022-11-03T03:46:20.476Z,4.44
2022-11-03T03:48:52.178Z,4.45
2022-11-03T03:51:28.676Z,4.51
2022-11-03T03:54:00.370Z,4.58
2022-11-03T03:56:38.032Z,4.65
2022-11-03T03:59:09.678Z,4.68
2022-11-03T04:01:41.454Z,4.67
2022-11-03T04:04:14.136Z,4.69
2022-11-03T04:06:48.994Z,4.69
2022-11-03T04:09:20.601Z,4.68
2022-11-03T04:12:09.531Z,4.69
2022-11-03T04:14:59.915Z,4.70
2022-11-03T04:17:49.428Z,4.65
2022-11-03T04:20:47.652Z,4.55
2022-11-03T04:23:19.893Z,4.47
2022-11-03T04:25:54.345Z,4.39
2022-11-03T04:28:27.315Z,4.26
2022-11-03T04:31:03.100Z,4.18
2022-11-03T04:33:42.071Z,4.13
2022-11-03T04:36:20.237Z,4.15
2022-11-03T04:38:52.880Z,4.12
2022-11-03T04:41:31.387Z,4.05
2022-11-03T04:44:06.235Z,3.96
2022-11-03T04:46:37.823Z,3.91
2022-11-03T04:49:18.160Z,3.87
2022-11-03T04:51:50.969Z,3.83
2022-11-03T04:54:24.458Z,3.79
2022-11-03T04:56:56.158Z,3.72
2022-11-03T04:59:27.964Z,3.67
2022-11-03T05:02:02.138Z,3.65
2022-11-03T05:04:34.010Z,3.65
2022-11-03T05:07:14.437Z,3.60
2022-11-03T05:09:46.132Z,3.64
2022-11-03T05:12:19.916Z,3.70
2022-11-03T05:14:57.880Z,3.79
2022-11-03T05:17:30.931Z,3.90
2022-11-03T05:20:04.746Z,4.00
2022-11-03T05:22:40.222Z,4.13
2022-11-03T05:25:34.699Z,4.22
2022-11-03T05:28:10.940Z,4.32
2022-11-03T05:30:42.521Z,4.40
2022-11-03T05:33:27.885Z,4.48
2022-11-03T05:36:03.331Z,4.52
2022-11-03T05:38:35.985Z,4.48
2022-11-03T05:41:16.669Z,4.45
2022-11-03T05:43:52.364Z,4.41
2022-11-03T05:46:24.079Z,4.43
2022-11-03T05:48:55.807Z,4.51
2022-11-03T05:51:31.074Z,4.56
2022-11-03T05:54:06.107Z,4.61
2022-11-03T05:56:37.778Z,4.66
2022-11-03T05:59:12.278Z,4.73
2022-11-03T06:01:44.278Z,4.81
2022-11-03T06:04:23.297Z,4.86
2022-11-03T06:06:57.981Z,4.86
2022-11-03T06:09:33.132Z,4.84
2022-11-03T06:12:13.001Z,4.81
2022-11-03T06:14:44.727Z,4.74
2022-11-03T06:17:23.846Z,4.75
2022-11-03T06:19:58.614Z,4.74
2022-11-03T06:22:32.663Z,4.76
2022-11-03T06:25:17.904Z,4.79
2022-11-03T06:27:49.560Z,4.83
2022-11-03T06:30:31.636Z,4.91
2022-11-03T06:33:13.879Z,5.02
2022-11-03T06:35:45.905Z,5.18
2022-11-03T06:38:21.717Z,5.34
2022-11-03T06:40:55.483Z,5.50
2022-11-03T06:43:41.697Z,5.63
2022-11-03T06:46:20.114Z,5.75
2022-11-03T06:48:52.106Z,5.86
2022-11-03T06:51:27.079Z,5.93
2022-11-03T06:54:07.141Z,6.01
2022-11-03T06:56:40.602Z,6.07
2022-11-03T06:59:15.350Z,6.16
2022-11-03T07:01:51.130Z,6.23
2022-11-03T07:04:28.618Z,6.32
2022-11-03T07:07:04.046Z,6.41
2022-11-03T07:09:35.644Z,6.55
2022-11-03T07:12:16.890Z,6.75
2022-11-03T07:14:48.694Z,6.96
2022-11-03T07:17:23.283Z,7.16
2022-11-03T07:19:54.954Z,7.34
2022-11-03T07:22:28.381Z,7.51
2022-11-03T07:25:04.784Z,7.70
2022-11-03T07:27:40.377Z,7.82
2022-11-03T07:30:20.599Z,7.91
2022-11-03T07:32:56.667Z,8.01
2022-11-03T07:36:00.459Z,8.14
2022-11-03T07:38:30.952Z,8.19
2022-11-03T07:41:02.847Z,8.23
2022-11-03T07:43:39.505Z,8.28
2022-11-03T07:46:20.371Z,8.37
2022-11-03T07:48:54.350Z,8.40
2022-11-03T07:51:28.670Z,8.39
2022-11-03T07:54:14.055Z,8.37
2022-11-03T07:56:53.989Z,8.32
2022-11-03T07:59:58.537Z,8.31
2022-11-03T08:02:51.056Z,8.29
2022-11-03T08:05:23.683Z,8.27
2022-11-03T08:07:56.099Z,8.28
2022-11-03T08:10:30.319Z,8.33
2022-11-03T08:13:02.045Z,8.41
2022-11-03T08:15:33.738Z,8.55
2022-11-03T08:18:05.560Z,8.70
2022-11-03T08:20:38.957Z,8.83
2022-11-03T08:23:25.397Z,8.93
2022-11-03T08:25:58.234Z,9.06
2022-11-03T08:28:30.751Z,9.19
2022-11-03T08:31:11.219Z,9.38
2022-11-03T08:33:44.586Z,9.56
2022-11-03T08:36:16.881Z,9.69
2022-11-03T08:38:48.625Z,9.80
2022-11-03T08:41:21.963Z,9.90
2022-11-03T08:43:53.710Z,9.99
2022-11-03T08:46:25.499Z,10.06
2022-11-03T08:48:57.370Z,10.08
2022-11-03T08:52:06.563Z,10.13
2022-11-03T08:55:49.602Z,10.24
2022-11-03T08:58:21.656Z,10.37
2022-11-03T09:00:58.229Z,10.47
2022-11-03T09:03:31.096Z,10.60
2022-11-03T09:12:55.547Z,11.10
2022-11-03T09:15:30.683Z,11.17
2022-11-03T09:19:17.635Z,11.29
2022-11-03T09:22:03.262Z,11.46
2022-11-03T09:24:39.304Z,11.53
2022-11-03T09:27:16.126Z,11.68
2022-11-03T09:30:11.506Z,11.86
2022-11-03T09:32:39.511Z,12.01
2022-11-03T09:35:14.603Z,12.15
2022-11-03T09:37:46.365Z,12.27
2022-11-03T09:40:19.382Z,12.37
2022-11-03T09:42:52.773Z,12.44
2022-11-03T09:46:03.574Z,12.47
2022-11-03T09:48:39.343Z,12.50
2022-11-03T09:51:15.280Z,12.59
2022-11-03T09:54:08.944Z,12.72
2022-11-03T09:56:41.734Z,12.89
2022-11-03T09:59:19.977Z,13.00
2022-11-03T10:01:54.497Z,13.12
2022-11-03T10:04:29.130Z,13.22
2022-11-03T10:07:17.454Z,13.35
2022-11-03T10:10:02.432Z,13.41
2022-11-03T10:12:38.960Z,13.42
2022-11-03T10:15:18.482Z,13.43
2022-11-03T10:17:51.336Z,13.43
2022-11-03T10:20:27.301Z,13.40
2022-11-03T10:22:59.015Z,13.41
2022-11-03T10:25:40.644Z,13.47
2022-11-03T10:28:21.361Z,13.53
2022-11-03T10:31:11.092Z,13.60
2022-11-03T10:33:54.896Z,13.67
2022-11-03T10:36:28.912Z,13.76
2022-11-03T10:39:27.582Z,13.84
2022-11-03T10:42:01.717Z,13.94
2022-11-03T10:44:33.811Z,14.02
2022-11-03T10:47:06.979Z,14.08
2022-11-03T10:49:43.268Z,14.16
2022-11-03T10:52:22.695Z,14.26
2022-11-03T10:54:57.639Z,14.34
2022-11-03T10:57:30.712Z,14.39
2022-11-03T11:00:02.367Z,14.44
2022-11-03T11:02:41.062Z,14.47
2022-11-03T11:05:21.141Z,14.50
2022-11-03T11:07:54.686Z,14.48
2022-11-03T11:10:28.437Z,14.45
2022-11-03T11:13:25.621Z,14.46
2022-11-03T11:15:58.835Z,14.47
2022-11-03T11:19:10.897Z,14.49
2022-11-03T11:22:15.779Z,14.46
2022-11-03T11:25:06.166Z,14.46
2022-11-03T11:28:19.107Z,14.46
2022-11-03T11:31:29.248Z,14.48
2022-11-03T11:34:35.424Z,14.51
2022-11-03T11:37:36.861Z,14.51
2022-11-03T11:40:15.432Z,14.51
2022-11-03T11:43:18.822Z,14.52
2022-11-03T11:46:25.111Z,14.56
2022-11-03T11:49:17.117Z,14.57
2022-11-03T11:51:49.117Z,14.53
2022-11-03T11:54:22.877Z,14.53
2022-11-03T11:56:54.476Z,14.51
2022-11-03T11:59:26.574Z,14.53
2022-11-03T12:02:12.884Z,14.55
2022-11-03T12:04:50.001Z,14.60
2022-11-03T12:07:34.777Z,14.68
2022-11-03T12:10:21.812Z,14.73
2022-11-03T12:12:53.611Z,14.78
2022-11-03T12:15:55.118Z,14.80
2022-11-03T12:18:39.985Z,14.80
2022-11-03T12:21:16.202Z,14.80
2022-11-03T12:23:48.423Z,14.76
2022-11-03T12:26:43.659Z,14.73
2022-11-03T12:29:15.276Z,14.69
2022-11-03T12:31:47.704Z,14.70
2022-11-03T12:34:19.589Z,14.73
2022-11-03T12:36:55.981Z,14.78
2022-11-03T12:39:28.027Z,14.81
2022-11-03T12:42:00.531Z,14.80
2022-11-03T12:44:32.509Z,14.69
2022-11-03T12:47:04.227Z,14.63
2022-11-03T12:49:36.476Z,14.61
2022-11-03T12:52:09.383Z,14.58
2022-11-03T12:54:42.257Z,14.55
2022-11-03T12:57:14.694Z,14.48
2022-11-03T12:59:46.359Z,14.50
2022-11-03T13:02:18.936Z,14.53
2022-11-03T13:04:50.703Z,14.58
2022-11-03T13:07:27.956Z,14.59
2022-11-03T13:10:04.917Z,14.58
2022-11-03T13:12:41.848Z,14.56
2022-11-03T13:15:16.020Z,14.54
2022-11-03T13:20:40.122Z,14.67
2022-11-03T13:23:17.406Z,14.71
2022-11-03T13:25:52.679Z,14.67
2022-11-03T13:28:25.453Z,14.72
2022-11-03T13:30:57.187Z,14.70
2022-11-03T13:33:29.771Z,14.66
2022-11-03T13:37:25.281Z,14.58
2022-11-03T13:39:59.309Z,14.52
2022-11-03T13:42:31.674Z,14.51
2022-11-03T13:45:04.708Z,14.51
2022-11-03T13:48:11.094Z,14.48
2022-11-03T13:50:30.877Z,14.38
2022-11-03T13:55:57.525Z,14.26
2022-11-03T14:01:25.901Z,14.04
2022-11-03T14:06:52.092Z,13.87
2022-11-03T14:09:23.885Z,13.83
2022-11-03T14:12:13.968Z,13.76
2022-11-03T14:14:45.630Z,13.67
2022-11-03T14:17:17.332Z,13.58
2022-11-03T14:19:52.630Z,13.46
2022-11-03T14:22:27.567Z,13.31
2022-11-03T14:24:59.385Z,13.20
2022-11-03T14:27:31.301Z,13.14
2022-11-03T14:30:03.223Z,13.09
2022-11-03T14:32:42.003Z,13.01
2022-11-03T14:35:13.645Z,12.94
2022-11-03T14:37:45.314Z,12.88
2022-11-03T14:40:31.337Z,12.82
2022-11-03T14:43:03.917Z,12.72
2022-11-03T14:45:38.356Z,12.66
2022-11-03T14:48:16.445Z,12.59
2022-11-03T14:50:48.285Z,12.54
2022-11-03T14:53:20.276Z,12.47
2022-11-03T14:55:51.913Z,12.40
2022-11-03T14:58:23.747Z,12.30
2022-11-03T15:00:55.397Z,12.20
2022-11-03T15:03:27.144Z,12.12
2022-11-03T15:05:59.044Z,12.05
2022-11-03T15:08:35.556Z,11.97
2022-11-03T15:11:08.668Z,11.87
2022-11-03T15:13:48.490Z,11.78
2022-11-03T15:16:21.543Z,11.65
2022-11-03T15:18:53.607Z,11.55
2022-11-03T15:21:25.228Z,11.46
2022-11-03T15:26:48.483Z,11.26
2022-11-03T15:29:20.361Z,11.17
2022-11-03T15:31:52.095Z,11.08
2022-11-03T15:34:23.782Z,11.00
2022-11-03T15:36:55.428Z,10.92
2022-11-03T15:39:29.887Z,10.83
2022-11-03T15:42:01.535Z,10.76
2022-11-03T15:44:33.315Z,10.69
2022-11-03T15:47:04.972Z,10.61
2022-11-03T15:49:36.681Z,10.55
2022-11-03T15:52:10.137Z,10.49
2022-11-03T15:54:42.700Z,10.42
2022-11-03T15:59:53.835Z,10.28
2022-11-03T16:02:40.789Z,10.22
2022-11-03T16:05:13.861Z,10.16
2022-11-03T16:07:45.428Z,10.12
2022-11-03T16:10:25.116Z,10.08
2022-11-03T16:12:56.744Z,10.06
2022-11-03T16:15:28.538Z,10.04
2022-11-03T16:18:02.851Z,10.03
2022-11-03T16:20:37.097Z,10.02
2022-11-03T16:23:08.687Z,9.99
2022-11-03T16:25:40.449Z,9.97
2022-11-03T16:28:12.147Z,9.93
2022-11-03T16:30:53.871Z,9.92
2022-11-03T16:33:28.708Z,9.89
2022-11-03T16:36:00.458Z,9.88
2022-11-03T16:38:32.169Z,9.86
2022-11-03T16:41:03.960Z,9.86
2022-11-03T16:43:35.603Z,9.85
2022-11-03T16:46:07.391Z,9.84
2022-11-03T16:48:38.991Z,9.82
2022-11-03T16:51:12.172Z,9.82
2022-11-03T16:53:46.278Z,9.82
2022-11-03T16:56:17.867Z,9.83
2022-11-03T16:58:49.461Z,9.83
2022-11-03T17:01:22.064Z,9.83
2022-11-03T17:03:54.124Z,9.82
2022-11-03T17:06:25.804Z,9.81
2022-11-03T17:08:58.360Z,9.81
2022-11-03T17:11:40.307Z,9.80
2022-11-03T17:14:14.393Z,9.79
2022-11-03T17:16:48.802Z,9.77
2022-11-03T17:19:23.329Z,9.77
2022-11-03T17:21:55.054Z,9.75
2022-11-03T17:24:28.163Z,9.74
2022-11-03T17:27:04.018Z,9.74
2022-11-03T17:29:41.417Z,9.74
2022-11-03T17:32:17.570Z,9.74
2022-11-03T17:34:51.716Z,9.73
2022-11-03T17:37:24.553Z,9.72
2022-11-03T17:39:57.282Z,9.69
2022-11-03T17:42:30.070Z,9.68
2022-11-03T17:45:05.341Z,9.70
2022-11-03T17:47:37.049Z,9.69
2022-11-03T17:50:12.706Z,9.69
2022-11-03T17:52:50.647Z,9.67
2022-11-03T17:55:29.658Z,9.66
2022-11-03T17:58:04.936Z,9.65
2022-11-03T18:00:39.589Z,9.64
2022-11-03T18:03:16.115Z,9.65
2022-11-03T18:05:52.489Z,9.63
2022-11-03T18:08:25.930Z,9.61
2022-11-03T18:10:57.593Z,9.58
2022-11-03T18:13:41.937Z,9.57
2022-11-03T18:16:23.409Z,9.53
2022-11-03T18:19:20.741Z,9.50
2022-11-03T18:25:33.728Z,9.49
2022-11-03T18:25:49.079Z,9.50
2022-11-03T18:28:08.196Z,9.48
2022-11-03T18:30:58.303Z,9.43
2022-11-03T18:33:48.650Z,9.38
2022-11-03T18:36:49.482Z,9.40
2022-11-03T18:39:28.061Z,9.41
2022-11-03T18:42:01.051Z,9.40
2022-11-03T18:44:32.739Z,9.39
2022-11-03T18:47:04.454Z,9.39
2022-11-03T18:49:36.431Z,9.39
2022-11-03T18:52:15.816Z,9.41
2022-11-03T18:54:50.330Z,9.41
2022-11-03T18:57:26.807Z,9.42
2022-11-03T18:59:58.666Z,9.42
2022-11-03T19:02:31.264Z,9.44
2022-11-03T19:05:02.974Z,9.46
2022-11-03T19:07:39.878Z,9.43
2022-11-03T19:10:24.604Z,9.41
2022-11-03T19:12:58.978Z,9.40
2022-11-03T19:15:30.886Z,9.36
2022-11-03T19:18:05.263Z,9.36
2022-11-03T19:20:41.539Z,9.34
2022-11-03T19:23:17.274Z,9.32
2022-11-03T19:25:50.032Z,9.33
2022-11-03T19:28:29.851Z,9.35
2022-11-03T19:31:01.949Z,9.37
2022-11-03T19:33:35.484Z,9.37
2022-11-03T19:36:10.498Z,9.36
2022-11-03T19:38:42.315Z,9.37
2022-11-03T19:41:35.679Z,9.34
2022-11-03T19:44:12.354Z,9.36
2022-11-03T19:46:44.293Z,9.36
2022-11-03T19:49:16.751Z,9.36
2022-11-03T19:51:48.944Z,9.35
2022-11-03T19:54:22.313Z,9.36
2022-11-03T19:56:54.169Z,9.37
2022-11-03T19:59:28.429Z,9.39
2022-11-03T20:02:00.296Z,9.40
2022-11-03T20:04:32.595Z,9.41
2022-11-03T20:07:07.637Z,9.40
2022-11-03T20:09:41.533Z,9.39
2022-11-03T20:12:19.045Z,9.40
2022-11-03T20:14:50.687Z,9.40
2022-11-03T20:17:23.959Z,9.42
2022-11-03T20:19:55.687Z,9.42
2022-11-03T20:22:31.272Z,9.42
2022-11-03T20:25:05.570Z,9.41
2022-11-03T20:27:37.491Z,9.39
2022-11-03T20:30:16.570Z,9.39
2022-11-03T20:32:49.316Z,9.41
2022-11-03T20:35:24.279Z,9.40
2022-11-03T20:38:00.135Z,9.40
2022-11-03T20:40:37.357Z,9.41
2022-11-03T20:43:24.684Z,9.44
2022-11-03T20:45:59.327Z,9.47
2022-11-03T20:48:31.070Z,9.48
2022-11-03T20:51:03.551Z,9.50
2022-11-03T20:53:35.487Z,9.53
2022-11-03T20:56:09.915Z,9.54
2022-11-03T20:58:41.558Z,9.57
2022-11-03T21:01:18.731Z,9.58
2022-11-03T21:03:59.439Z,9.59
2022-11-03T21:06:33.250Z,9.57
2022-11-03T21:09:05.846Z,9.52
2022-11-03T21:11:41.380Z,9.54
2022-11-03T21:14:22.558Z,9.55
2022-11-03T21:17:18.179Z,9.56
2022-11-03T21:20:07.890Z,9.54
2022-11-03T21:22:56.166Z,9.55
2022-11-03T21:25:28.487Z,9.56
2022-11-03T21:28:00.252Z,9.58
2022-11-03T21:30:31.923Z,9.58
2022-11-03T21:33:08.390Z,9.58
2022-11-03T21:35:41.668Z,9.58
2022-11-03T21:38:13.816Z,9.61
2022-11-03T21:40:50.096Z,9.60
2022-11-03T21:43:43.279Z,9.60
2022-11-03T21:46:14.993Z,9.58
2022-11-03T21:49:03.928Z,9.59
2022-11-03T21:51:35.578Z,9.57
2022-11-03T21:54:08.812Z,9.55
2022-11-03T21:56:42.586Z,9.57
2022-11-03T21:59:15.471Z,9.59
2022-11-03T22:01:48.946Z,9.59
2022-11-03T22:04:21.030Z,9.56
2022-11-03T22:06:55.478Z,9.57
2022-11-03T22:09:30.654Z,9.57
2022-11-03T22:12:02.342Z,9.54
2022-11-03T22:14:48.727Z,9.54
2022-11-03T22:17:20.406Z,9.54
2022-11-03T22:20:16.729Z,9.55
2022-11-03T22:23:06.036Z,9.57
2022-11-03T22:25:55.382Z,9.60
2022-11-03T22:28:28.779Z,9.61
2022-11-03T22:31:19.489Z,9.64
2022-11-03T22:34:08.760Z,9.64
2022-11-03T22:36:40.433Z,9.65
2022-11-03T22:39:29.336Z,9.65
2022-11-03T22:42:19.299Z,9.65
2022-11-03T22:45:08.624Z,9.64
2022-11-03T22:47:40.246Z,9.64
2022-11-03T22:50:12.373Z,9.65
2022-11-03T22:52:44.819Z,9.67
2022-11-03T22:55:16.633Z,9.69
2022-11-03T22:57:48.316Z,9.69
2022-11-03T23:00:22.054Z,9.69
2022-11-03T23:02:58.491Z,9.69
2022-11-03T23:05:30.232Z,9.67
2022-11-03T23:08:02.219Z,9.67
2022-11-03T23:10:33.851Z,9.66
2022-11-03T23:13:06.648Z,9.65
2022-11-03T23:15:43.697Z,9.64
2022-11-03T23:18:33.085Z,9.61
2022-11-03T23:21:10.563Z,9.60
2022-11-03T23:24:01.998Z,9.58
2022-11-03T23:26:33.623Z,9.56
2022-11-03T23:29:06.332Z,9.53
2022-11-03T23:31:38.954Z,9.52
2022-11-03T23:34:12.196Z,9.51
2022-11-03T23:36:45.878Z,9.48
2022-11-03T23:39:18.986Z,9.44
2022-11-03T23:41:51.461Z,9.41
2022-11-03T23:44:27.266Z,9.40
2022-11-03T23:47:16.144Z,9.37
2022-11-03T23:49:47.776Z,9.36
2022-11-03T23:52:19.406Z,9.36
2022-11-03T23:54:51.961Z,9.34
2022-11-03T23:57:40.951Z,9.32
